Last 24 Hours

O'Neill Sea Odyssey

Hourly Data | America/Los_Angeles
as of 4/12/24 5:37 AM PDT
Date & Time Temp (°F) RH (%) Dew Pt (°F) Wind Dir (°) Wind Spd (mph) Wind Gust (mph) Latest Rain (In) Daily Rain (In) Daily Min Temp (°F) Daily Max Temp (°F) Daily Max Wind (mph)
4/12/24 - 0500 50.0 95 48.7 N | 350 1.3 3.3 0.00 0.00 49.8 53.3 4.2
4/12/24 - 0400 50.6 94 49.0 N | 4 2.7 4.2 0.00 0.00 50.2 53.3 4.2
4/12/24 - 0300 51.4 94 49.7 N | 360 2.4 3.9 0.00 0.00 50.9 53.3 3.9
4/12/24 - 0200 52.5 92 50.2 N | 356 2.2 3.7 0.00 0.00 51.7 53.3 3.7
4/12/24 - 0100 53.8 91 51.3 W | 275 2.3 4.4 0.00 0.00 49.2 67.5 16.4
4/12/24 - 0000 54.5 89 51.3 W | 263 3.1 5.7 0.00 0.00 49.2 67.5 16.4
4/11/24 - 2300 55.3 86 51.1 SSW | 210 1.2 5.0 0.00 0.00 49.2 67.5 16.4
4/11/24 - 2200 55.5 85 51.2 ENE | 57 2.3 6.6 0.00 0.00 49.2 67.5 16.4
4/11/24 - 2100 55.6 87 51.8 ESE | 104 6.4 13.2 0.00 0.00 49.2 67.5 16.4
4/11/24 - 2000 56.5 87 52.7 ESE | 107 5.0 10.5 0.00 0.00 49.2 67.5 16.4
4/11/24 - 1900 59.2 81 53.5 ESE | 112 6.6 16.4 0.00 0.00 49.2 67.5 16.4
4/11/24 - 1800 64.3 69 53.9 ENE | 66 5.9 16.2 0.00 0.00 49.2 67.5 16.2
4/11/24 - 1700 63.1 76 55.3 SSE | 151 5.8 11.4 0.00 0.00 49.2 65.6 14.5
4/11/24 - 1600 62.4 77 55.1 SW | 220 10.0 13.2 0.00 0.00 49.2 65.6 14.5
4/11/24 - 1500 63.5 76 55.9 SW | 227 10.1 13.6 0.00 0.00 49.2 65.6 14.5
4/11/24 - 1400 61.8 79 55.2 SW | 227 9.9 14.2 0.00 0.00 49.2 64.3 14.5
4/11/24 - 1300 59.8 81 54.1 SW | 225 11.0 14.5 0.00 0.00 49.2 60.7 14.5
4/11/24 - 1200 58.3 84 53.6 SW | 224 9.9 13.6 0.00 0.00 49.2 60.3 13.6
4/11/24 - 1100 56.9 90 54.0 SW | 220 6.3 8.3 0.00 0.00 49.2 58.6 8.6
4/11/24 - 1000 54.5 96 53.4 SW | 220 5.5 8.6 0.00 0.00 49.2 56.0 8.6
4/11/24 - 0900 53.3 96 52.3 SSW | 202 2.8 8.3 0.00 0.00 49.2 54.1 8.3
4/11/24 - 0800 50.1 97 49.3 N | 2 1.2 3.1 0.00 0.00 49.2 53.1 5.7
4/11/24 - 0700 50.2 96 49.2 N | 3 2.7 5.3 0.00 0.00 49.2 53.1 5.7
4/11/24 - 0600 49.5 95 48.2 NNE | 12 3.8 5.7 0.00 0.00 49.2 53.1 5.7
4/11/24 - 0500 50.2 96 49.0 NNE | 13 1.7 3.7 0.00 0.00 49.5 53.1 4.8
Max 64.3 97 55.9 - 11.0 16.4 0.00 0.00 51.7 67.5 16.4
Avg 55.7 88 52.0 - 4.9 8.7 0.00 - - - -
Min 49.5 69 48.2 - 1.2 3.1 0.00 0.00 49.2 53.1 3.7
Total - - - - - - 0.00 - - - -